ES-0176 weather

Public forecast

Using degrees Celsius for public forecast. Weather courtesy of forecast.io.

Closest aviation weather report (METAR) to Aeródromo de Guadalix de la SIerra

Closest report is Adolfo Suárez Madrid–Barajas Airport, 19.1 nm (35.4 km) S. Retrieved 2020/08/13 14:30 UTC (0 seconds ago):

LEMD 131430Z 19008KT 140V230 9999 FEW068 31/12 Q1016 NOSIG

Closest aviation forecast (TAF) to Aeródromo de Guadalix de la SIerra

Closest forecast is Base Aérea de Colmenar Viejo, 7.7 nm (14.2 km) SW. Retrieved 2020/08/13 12:26 UTC (2 hours ago):

TAF LECV 131100Z 1312/1412 VRB05KT CAVOK TX27/1316Z TN14/1406Z TEMPO 1312/1320 21010KT BECMG 1411/1412 21010KT